Terminal Aerodrome Forecast
Issued by NWS

Home | Current Version | Previous Version | Text Only | Print | Product List | Glossary On
Versions: 1 2 3 4 5 6 7 8 9 10 11 12 13 14 15 16 17 18 19 20 21
452
FTUS43 KTOP 282321
TAFFOE
TAF
KFOE 282321Z 2900/2924 09008KT P6SM OVC016
     FM290600 07016KT P6SM VCSH OVC012
     FM290900 06013G22KT 3SM -SHRA OVC007
     FM291000 07015G25KT 2SM RA OVC007
     FM291500 07015G27KT 3SM -RA OVC007
     FM291700 06015KT 2SM -RA OVC003=

USA.gov is the U.S. government's official web portal to all federal, state and local government web resources and services.